ΕΜΥ, Εθνική Μετεωρολογική Υπηρεσία - Δελτία Καιρού, Προγνώσεις

ΑΕΡΟΝΑΥΤΙΛΙΑ

GREEK AIRPORTS CODES

LGMT 122050Z VRB03KT CAVOK 12/06 Q1021=

EUROPEAN AIRPORTS CODES

LFPO 122100Z 30006KT 9999 FEW031TCU SCT058 BKN066 06/03Q1030 NOSIG=